sensor_id;sensor_type;location;lat;lon;timestamp;temperature;humidity
16198;DHT22;8206;51.440;6.914;2022-08-07T00:00:48;14.60;99.90
16198;DHT22;8206;51.440;6.914;2022-08-07T00:03:15;14.60;99.90
16198;DHT22;8206;51.440;6.914;2022-08-07T00:05:43;14.50;99.90
16198;DHT22;8206;51.440;6.914;2022-08-07T00:08:10;14.50;99.90
16198;DHT22;8206;51.440;6.914;2022-08-07T00:10:37;14.40;99.90
16198;DHT22;8206;51.440;6.914;2022-08-07T00:13:05;14.40;99.90
16198;DHT22;8206;51.440;6.914;2022-08-07T00:15:32;14.30;99.90
16198;DHT22;8206;51.440;6.914;2022-08-07T00:17:59;14.30;99.90
16198;DHT22;8206;51.440;6.914;2022-08-07T00:20:26;14.20;99.90
16198;DHT22;8206;51.440;6.914;2022-08-07T00:22:54;14.20;99.90
16198;DHT22;8206;51.440;6.914;2022-08-07T00:25:21;14.10;99.90
16198;DHT22;8206;51.440;6.914;2022-08-07T00:27:49;14.10;99.90
16198;DHT22;8206;51.440;6.914;2022-08-07T00:30:16;14.10;99.90
16198;DHT22;8206;51.440;6.914;2022-08-07T00:32:43;14.20;99.90
16198;DHT22;8206;51.440;6.914;2022-08-07T00:35:12;14.10;99.90
16198;DHT22;8206;51.440;6.914;2022-08-07T00:37:39;14.10;99.90
16198;DHT22;8206;51.440;6.914;2022-08-07T00:40:08;14.20;99.90
16198;DHT22;8206;51.440;6.914;2022-08-07T00:42:35;14.20;99.90
16198;DHT22;8206;51.440;6.914;2022-08-07T00:45:03;14.20;99.90
16198;DHT22;8206;51.440;6.914;2022-08-07T00:47:31;14.10;99.90
16198;DHT22;8206;51.440;6.914;2022-08-07T00:49:58;14.10;99.90
16198;DHT22;8206;51.440;6.914;2022-08-07T00:52:25;14.00;99.90
16198;DHT22;8206;51.440;6.914;2022-08-07T00:54:52;14.00;99.90
16198;DHT22;8206;51.440;6.914;2022-08-07T00:57:20;14.00;99.90
16198;DHT22;8206;51.440;6.914;2022-08-07T00:59:47;13.90;99.90
16198;DHT22;8206;51.440;6.914;2022-08-07T01:02:14;13.90;99.90
16198;DHT22;8206;51.440;6.914;2022-08-07T01:04:41;13.90;99.90
16198;DHT22;8206;51.440;6.914;2022-08-07T01:07:08;13.90;99.90
16198;DHT22;8206;51.440;6.914;2022-08-07T01:09:35;13.90;99.90
16198;DHT22;8206;51.440;6.914;2022-08-07T01:12:03;13.90;99.90
16198;DHT22;8206;51.440;6.914;2022-08-07T01:14:31;13.90;99.90
16198;DHT22;8206;51.440;6.914;2022-08-07T01:16:59;13.90;99.90
16198;DHT22;8206;51.440;6.914;2022-08-07T01:19:28;13.90;99.90
16198;DHT22;8206;51.440;6.914;2022-08-07T01:21:56;13.80;99.90
16198;DHT22;8206;51.440;6.914;2022-08-07T01:24:24;13.80;99.90
16198;DHT22;8206;51.440;6.914;2022-08-07T01:26:51;13.80;99.90
16198;DHT22;8206;51.440;6.914;2022-08-07T01:29:19;13.70;99.90
16198;DHT22;8206;51.440;6.914;2022-08-07T01:31:46;13.70;99.90
16198;DHT22;8206;51.440;6.914;2022-08-07T01:34:13;13.70;99.90
16198;DHT22;8206;51.440;6.914;2022-08-07T01:36:40;13.60;99.90
16198;DHT22;8206;51.440;6.914;2022-08-07T01:39:08;13.60;99.90
16198;DHT22;8206;51.440;6.914;2022-08-07T01:41:35;13.50;99.90
16198;DHT22;8206;51.440;6.914;2022-08-07T01:44:02;13.50;99.90
16198;DHT22;8206;51.440;6.914;2022-08-07T01:46:31;13.50;99.90
16198;DHT22;8206;51.440;6.914;2022-08-07T01:48:58;13.50;99.90
16198;DHT22;8206;51.440;6.914;2022-08-07T01:51:25;13.50;99.90
16198;DHT22;8206;51.440;6.914;2022-08-07T01:53:54;13.40;99.90
16198;DHT22;8206;51.440;6.914;2022-08-07T01:56:25;13.50;99.90
16198;DHT22;8206;51.440;6.914;2022-08-07T01:58:55;13.40;99.90
16198;DHT22;8206;51.440;6.914;2022-08-07T02:01:26;13.40;99.90
16198;DHT22;8206;51.440;6.914;2022-08-07T02:03:58;13.40;99.90
16198;DHT22;8206;51.440;6.914;2022-08-07T02:06:28;13.40;99.90
16198;DHT22;8206;51.440;6.914;2022-08-07T02:08:58;13.30;99.90
16198;DHT22;8206;51.440;6.914;2022-08-07T02:11:27;13.20;99.90
16198;DHT22;8206;51.440;6.914;2022-08-07T02:13:55;13.20;99.90
16198;DHT22;8206;51.440;6.914;2022-08-07T02:16:24;13.20;99.90
16198;DHT22;8206;51.440;6.914;2022-08-07T02:18:51;13.10;99.90
16198;DHT22;8206;51.440;6.914;2022-08-07T02:21:20;13.10;99.90
16198;DHT22;8206;51.440;6.914;2022-08-07T02:23:48;13.10;99.90
16198;DHT22;8206;51.440;6.914;2022-08-07T02:26:16;13.10;99.90
16198;DHT22;8206;51.440;6.914;2022-08-07T02:28:44;13.00;99.90
16198;DHT22;8206;51.440;6.914;2022-08-07T02:31:13;13.00;99.90
16198;DHT22;8206;51.440;6.914;2022-08-07T02:33:40;13.00;99.90
16198;DHT22;8206;51.440;6.914;2022-08-07T02:36:08;13.00;99.90
16198;DHT22;8206;51.440;6.914;2022-08-07T02:38:37;13.00;99.90
16198;DHT22;8206;51.440;6.914;2022-08-07T02:41:05;12.90;99.90
16198;DHT22;8206;51.440;6.914;2022-08-07T02:43:34;12.80;99.90
16198;DHT22;8206;51.440;6.914;2022-08-07T02:46:03;12.80;99.90
16198;DHT22;8206;51.440;6.914;2022-08-07T02:48:31;12.80;99.90
16198;DHT22;8206;51.440;6.914;2022-08-07T02:51:02;12.70;99.90
16198;DHT22;8206;51.440;6.914;2022-08-07T02:53:32;12.80;99.90
16198;DHT22;8206;51.440;6.914;2022-08-07T02:56:00;12.80;99.90
16198;DHT22;8206;51.440;6.914;2022-08-07T02:58:30;12.80;99.90
16198;DHT22;8206;51.440;6.914;2022-08-07T03:00:57;12.80;1.00
16198;DHT22;8206;51.440;6.914;2022-08-07T03:03:29;12.80;99.90
16198;DHT22;8206;51.440;6.914;2022-08-07T03:05:57;12.80;1.00
16198;DHT22;8206;51.440;6.914;2022-08-07T03:08:25;12.80;99.90
16198;DHT22;8206;51.440;6.914;2022-08-07T03:10:52;12.70;99.90
16198;DHT22;8206;51.440;6.914;2022-08-07T03:13:20;12.70;99.90
16198;DHT22;8206;51.440;6.914;2022-08-07T03:15:48;12.60;99.90
16198;DHT22;8206;51.440;6.914;2022-08-07T03:18:16;12.60;99.90
16198;DHT22;8206;51.440;6.914;2022-08-07T03:20:45;12.60;99.90
16198;DHT22;8206;51.440;6.914;2022-08-07T03:23:12;12.60;99.90
16198;DHT22;8206;51.440;6.914;2022-08-07T03:25:40;12.60;99.90
16198;DHT22;8206;51.440;6.914;2022-08-07T03:28:09;12.60;99.90
16198;DHT22;8206;51.440;6.914;2022-08-07T03:30:38;12.60;99.90
16198;DHT22;8206;51.440;6.914;2022-08-07T03:33:06;12.50;1.00
16198;DHT22;8206;51.440;6.914;2022-08-07T03:35:35;12.50;1.00
16198;DHT22;8206;51.440;6.914;2022-08-07T03:38:07;12.60;1.00
16198;DHT22;8206;51.440;6.914;2022-08-07T03:40:34;12.60;1.00
16198;DHT22;8206;51.440;6.914;2022-08-07T03:43:02;12.50;1.00
16198;DHT22;8206;51.440;6.914;2022-08-07T03:45:30;12.50;1.00
16198;DHT22;8206;51.440;6.914;2022-08-07T03:47:58;12.50;99.90
16198;DHT22;8206;51.440;6.914;2022-08-07T03:50:25;12.50;99.90
16198;DHT22;8206;51.440;6.914;2022-08-07T03:52:52;12.50;99.90
16198;DHT22;8206;51.440;6.914;2022-08-07T03:55:23;12.50;99.90
16198;DHT22;8206;51.440;6.914;2022-08-07T03:57:50;12.50;99.90
16198;DHT22;8206;51.440;6.914;2022-08-07T04:00:18;12.50;99.90
16198;DHT22;8206;51.440;6.914;2022-08-07T04:02:45;12.50;99.90
16198;DHT22;8206;51.440;6.914;2022-08-07T04:05:13;12.50;99.90
16198;DHT22;8206;51.440;6.914;2022-08-07T04:07:44;12.50;99.90
16198;DHT22;8206;51.440;6.914;2022-08-07T04:10:11;12.50;99.90
16198;DHT22;8206;51.440;6.914;2022-08-07T04:12:40;12.50;99.90
16198;DHT22;8206;51.440;6.914;2022-08-07T04:15:10;12.50;99.90
16198;DHT22;8206;51.440;6.914;2022-08-07T04:17:38;12.60;99.90
16198;DHT22;8206;51.440;6.914;2022-08-07T04:20:09;12.60;99.90
16198;DHT22;8206;51.440;6.914;2022-08-07T04:22:37;12.60;99.90
16198;DHT22;8206;51.440;6.914;2022-08-07T04:25:06;12.60;99.90
16198;DHT22;8206;51.440;6.914;2022-08-07T04:27:34;12.70;99.90
16198;DHT22;8206;51.440;6.914;2022-08-07T04:30:03;12.70;99.90
16198;DHT22;8206;51.440;6.914;2022-08-07T04:32:30;13.00;99.90
16198;DHT22;8206;51.440;6.914;2022-08-07T04:34:59;13.30;99.90
16198;DHT22;8206;51.440;6.914;2022-08-07T04:37:26;13.90;99.90
16198;DHT22;8206;51.440;6.914;2022-08-07T04:39:53;14.30;99.90
16198;DHT22;8206;51.440;6.914;2022-08-07T04:42:20;14.60;99.90
16198;DHT22;8206;51.440;6.914;2022-08-07T04:44:52;14.60;99.90
16198;DHT22;8206;51.440;6.914;2022-08-07T04:47:28;14.40;99.90
16198;DHT22;8206;51.440;6.914;2022-08-07T04:50:01;14.30;99.90
16198;DHT22;8206;51.440;6.914;2022-08-07T04:52:35;14.20;99.90
16198;DHT22;8206;51.440;6.914;2022-08-07T04:55:10;14.10;99.90
16198;DHT22;8206;51.440;6.914;2022-08-07T04:57:44;14.00;99.90
16198;DHT22;8206;51.440;6.914;2022-08-07T05:00:15;14.00;99.90
16198;DHT22;8206;51.440;6.914;2022-08-07T05:02:50;14.20;99.90
16198;DHT22;8206;51.440;6.914;2022-08-07T05:05:22;14.90;99.90
16198;DHT22;8206;51.440;6.914;2022-08-07T05:07:55;16.00;99.90
16198;DHT22;8206;51.440;6.914;2022-08-07T05:10:29;16.90;99.90
16198;DHT22;8206;51.440;6.914;2022-08-07T05:12:58;17.80;99.90
16198;DHT22;8206;51.440;6.914;2022-08-07T05:15:28;18.50;99.90
16198;DHT22;8206;51.440;6.914;2022-08-07T05:18:00;19.10;99.90
16198;DHT22;8206;51.440;6.914;2022-08-07T05:20:32;19.70;99.90
16198;DHT22;8206;51.440;6.914;2022-08-07T05:23:04;19.90;99.90
16198;DHT22;8206;51.440;6.914;2022-08-07T05:25:32;19.80;99.90
16198;DHT22;8206;51.440;6.914;2022-08-07T05:28:00;19.90;99.90
16198;DHT22;8206;51.440;6.914;2022-08-07T05:30:28;20.10;99.90
16198;DHT22;8206;51.440;6.914;2022-08-07T05:32:57;20.30;99.90
16198;DHT22;8206;51.440;6.914;2022-08-07T05:35:25;20.50;99.90
16198;DHT22;8206;51.440;6.914;2022-08-07T05:37:52;20.80;99.90
16198;DHT22;8206;51.440;6.914;2022-08-07T05:40:20;21.20;99.90
16198;DHT22;8206;51.440;6.914;2022-08-07T05:42:47;21.60;99.90
16198;DHT22;8206;51.440;6.914;2022-08-07T05:45:15;22.00;99.90
16198;DHT22;8206;51.440;6.914;2022-08-07T05:47:42;22.30;99.90
16198;DHT22;8206;51.440;6.914;2022-08-07T05:50:10;22.40;99.90
16198;DHT22;8206;51.440;6.914;2022-08-07T05:52:37;22.40;99.90
16198;DHT22;8206;51.440;6.914;2022-08-07T05:55:05;22.50;99.90
16198;DHT22;8206;51.440;6.914;2022-08-07T05:57:33;22.70;99.90
16198;DHT22;8206;51.440;6.914;2022-08-07T06:00:02;23.30;99.90
16198;DHT22;8206;51.440;6.914;2022-08-07T06:02:32;23.40;99.90
16198;DHT22;8206;51.440;6.914;2022-08-07T06:05:04;23.40;99.90
16198;DHT22;8206;51.440;6.914;2022-08-07T06:07:34;23.80;99.90
16198;DHT22;8206;51.440;6.914;2022-08-07T06:10:02;23.90;99.90
16198;DHT22;8206;51.440;6.914;2022-08-07T06:12:29;24.00;99.90
16198;DHT22;8206;51.440;6.914;2022-08-07T06:14:57;24.10;99.90
16198;DHT22;8206;51.440;6.914;2022-08-07T06:17:25;24.20;99.90
16198;DHT22;8206;51.440;6.914;2022-08-07T06:19:52;24.30;99.90
16198;DHT22;8206;51.440;6.914;2022-08-07T06:22:20;24.70;99.90
16198;DHT22;8206;51.440;6.914;2022-08-07T06:24:48;24.90;99.90
16198;DHT22;8206;51.440;6.914;2022-08-07T06:27:24;25.30;99.90
16198;DHT22;8206;51.440;6.914;2022-08-07T06:29:51;25.40;99.90
16198;DHT22;8206;51.440;6.914;2022-08-07T06:32:18;25.60;99.90
16198;DHT22;8206;51.440;6.914;2022-08-07T06:34:45;25.70;99.90
16198;DHT22;8206;51.440;6.914;2022-08-07T06:37:12;25.50;99.90
16198;DHT22;8206;51.440;6.914;2022-08-07T06:39:38;25.90;99.90
16198;DHT22;8206;51.440;6.914;2022-08-07T06:42:09;26.20;99.90
16198;DHT22;8206;51.440;6.914;2022-08-07T06:44:37;26.20;99.90
16198;DHT22;8206;51.440;6.914;2022-08-07T06:47:06;26.20;99.90
16198;DHT22;8206;51.440;6.914;2022-08-07T06:49:33;26.40;99.90
16198;DHT22;8206;51.440;6.914;2022-08-07T06:52:00;26.70;99.90
16198;DHT22;8206;51.440;6.914;2022-08-07T06:54:28;26.80;99.90
16198;DHT22;8206;51.440;6.914;2022-08-07T06:56:58;26.90;99.90
16198;DHT22;8206;51.440;6.914;2022-08-07T06:59:30;26.90;99.90
16198;DHT22;8206;51.440;6.914;2022-08-07T07:01:58;26.60;99.90
16198;DHT22;8206;51.440;6.914;2022-08-07T07:04:25;25.80;99.90
16198;DHT22;8206;51.440;6.914;2022-08-07T07:06:52;25.10;99.90
16198;DHT22;8206;51.440;6.914;2022-08-07T07:09:21;24.60;99.90
16198;DHT22;8206;51.440;6.914;2022-08-07T07:12:12;24.10;99.90
16198;DHT22;8206;51.440;6.914;2022-08-07T07:14:49;23.70;99.90
16198;DHT22;8206;51.440;6.914;2022-08-07T07:17:21;23.20;99.90
16198;DHT22;8206;51.440;6.914;2022-08-07T07:19:53;22.80;99.90
16198;DHT22;8206;51.440;6.914;2022-08-07T07:22:21;22.60;99.90
16198;DHT22;8206;51.440;6.914;2022-08-07T07:24:49;22.50;99.90
16198;DHT22;8206;51.440;6.914;2022-08-07T07:27:20;22.40;99.90
16198;DHT22;8206;51.440;6.914;2022-08-07T07:29:54;22.20;99.90
16198;DHT22;8206;51.440;6.914;2022-08-07T07:32:24;22.00;99.90
16198;DHT22;8206;51.440;6.914;2022-08-07T07:34:54;21.90;99.90
16198;DHT22;8206;51.440;6.914;2022-08-07T07:37:23;21.70;99.90
16198;DHT22;8206;51.440;6.914;2022-08-07T07:39:54;21.70;99.90
16198;DHT22;8206;51.440;6.914;2022-08-07T07:42:22;21.70;99.90
16198;DHT22;8206;51.440;6.914;2022-08-07T07:44:53;21.60;99.90
16198;DHT22;8206;51.440;6.914;2022-08-07T07:47:22;21.70;99.90
16198;DHT22;8206;51.440;6.914;2022-08-07T07:49:51;21.60;99.90
16198;DHT22;8206;51.440;6.914;2022-08-07T07:52:20;21.60;99.90
16198;DHT22;8206;51.440;6.914;2022-08-07T07:54:47;21.70;99.90
16198;DHT22;8206;51.440;6.914;2022-08-07T07:57:15;21.70;99.90
16198;DHT22;8206;51.440;6.914;2022-08-07T07:59:45;21.80;99.90
16198;DHT22;8206;51.440;6.914;2022-08-07T08:02:16;21.90;99.90
16198;DHT22;8206;51.440;6.914;2022-08-07T08:04:44;22.10;99.90
16198;DHT22;8206;51.440;6.914;2022-08-07T08:07:12;22.10;99.90
16198;DHT22;8206;51.440;6.914;2022-08-07T08:09:40;22.30;99.90
16198;DHT22;8206;51.440;6.914;2022-08-07T08:12:08;22.40;99.90
16198;DHT22;8206;51.440;6.914;2022-08-07T08:14:35;22.30;99.90
16198;DHT22;8206;51.440;6.914;2022-08-07T08:17:04;22.30;99.90
16198;DHT22;8206;51.440;6.914;2022-08-07T08:19:33;22.30;99.90
16198;DHT22;8206;51.440;6.914;2022-08-07T08:22:01;22.30;99.90
16198;DHT22;8206;51.440;6.914;2022-08-07T08:24:48;22.20;99.90
16198;DHT22;8206;51.440;6.914;2022-08-07T08:27:36;22.40;99.90
16198;DHT22;8206;51.440;6.914;2022-08-07T08:30:05;22.40;99.90
16198;DHT22;8206;51.440;6.914;2022-08-07T08:32:38;22.40;99.90
16198;DHT22;8206;51.440;6.914;2022-08-07T08:35:09;22.30;99.90
16198;DHT22;8206;51.440;6.914;2022-08-07T08:37:37;22.50;99.90
16198;DHT22;8206;51.440;6.914;2022-08-07T08:40:09;22.70;99.90
16198;DHT22;8206;51.440;6.914;2022-08-07T08:42:44;22.70;99.90
16198;DHT22;8206;51.440;6.914;2022-08-07T08:45:17;22.80;99.90
16198;DHT22;8206;51.440;6.914;2022-08-07T08:47:51;22.90;99.90
16198;DHT22;8206;51.440;6.914;2022-08-07T08:50:26;22.90;99.90
16198;DHT22;8206;51.440;6.914;2022-08-07T08:53:01;22.80;99.90
16198;DHT22;8206;51.440;6.914;2022-08-07T08:55:33;22.70;99.90
16198;DHT22;8206;51.440;6.914;2022-08-07T08:58:05;22.80;99.90
16198;DHT22;8206;51.440;6.914;2022-08-07T09:00:41;22.90;99.90
16198;DHT22;8206;51.440;6.914;2022-08-07T09:03:17;22.90;99.90
16198;DHT22;8206;51.440;6.914;2022-08-07T09:05:52;22.90;99.90
16198;DHT22;8206;51.440;6.914;2022-08-07T09:08:30;23.00;99.90
16198;DHT22;8206;51.440;6.914;2022-08-07T09:11:12;22.80;99.90
16198;DHT22;8206;51.440;6.914;2022-08-07T09:13:49;22.90;99.90
16198;DHT22;8206;51.440;6.914;2022-08-07T09:16:25;22.90;99.90
16198;DHT22;8206;51.440;6.914;2022-08-07T09:19:16;22.90;99.90
16198;DHT22;8206;51.440;6.914;2022-08-07T09:21:52;23.00;99.90
16198;DHT22;8206;51.440;6.914;2022-08-07T09:24:37;23.20;99.90
16198;DHT22;8206;51.440;6.914;2022-08-07T09:27:20;23.20;99.90
16198;DHT22;8206;51.440;6.914;2022-08-07T09:29:55;23.00;99.90
16198;DHT22;8206;51.440;6.914;2022-08-07T09:32:30;22.90;99.90
16198;DHT22;8206;51.440;6.914;2022-08-07T09:35:04;23.00;99.90
16198;DHT22;8206;51.440;6.914;2022-08-07T09:37:39;23.10;99.90
16198;DHT22;8206;51.440;6.914;2022-08-07T09:40:15;23.20;99.90
16198;DHT22;8206;51.440;6.914;2022-08-07T09:42:51;23.30;99.90
16198;DHT22;8206;51.440;6.914;2022-08-07T09:45:31;23.40;99.90
16198;DHT22;8206;51.440;6.914;2022-08-07T09:48:10;23.40;99.90
16198;DHT22;8206;51.440;6.914;2022-08-07T09:50:53;23.20;99.90
16198;DHT22;8206;51.440;6.914;2022-08-07T09:53:25;23.30;99.90
16198;DHT22;8206;51.440;6.914;2022-08-07T09:56:09;23.30;99.90
16198;DHT22;8206;51.440;6.914;2022-08-07T09:59:04;23.20;99.90
16198;DHT22;8206;51.440;6.914;2022-08-07T10:01:44;23.10;99.90
16198;DHT22;8206;51.440;6.914;2022-08-07T10:04:29;23.00;99.90
16198;DHT22;8206;51.440;6.914;2022-08-07T10:07:24;23.20;99.90
16198;DHT22;8206;51.440;6.914;2022-08-07T10:10:09;23.30;99.90
16198;DHT22;8206;51.440;6.914;2022-08-07T10:16:03;23.50;99.90
16198;DHT22;8206;51.440;6.914;2022-08-07T10:18:55;23.60;99.90
16198;DHT22;8206;51.440;6.914;2022-08-07T10:21:31;23.70;99.90
16198;DHT22;8206;51.440;6.914;2022-08-07T10:24:34;23.80;99.90
16198;DHT22;8206;51.440;6.914;2022-08-07T10:27:33;23.90;99.90
16198;DHT22;8206;51.440;6.914;2022-08-07T10:30:06;24.00;99.90
16198;DHT22;8206;51.440;6.914;2022-08-07T10:32:47;24.10;99.90
16198;DHT22;8206;51.440;6.914;2022-08-07T10:35:23;23.90;99.90
16198;DHT22;8206;51.440;6.914;2022-08-07T10:38:09;23.90;99.90
16198;DHT22;8206;51.440;6.914;2022-08-07T10:40:41;23.90;99.90
16198;DHT22;8206;51.440;6.914;2022-08-07T10:43:14;24.00;99.90
16198;DHT22;8206;51.440;6.914;2022-08-07T10:45:46;23.90;99.90
16198;DHT22;8206;51.440;6.914;2022-08-07T10:48:24;23.90;99.90
16198;DHT22;8206;51.440;6.914;2022-08-07T10:50:55;24.00;99.90
16198;DHT22;8206;51.440;6.914;2022-08-07T10:53:27;24.00;99.90
16198;DHT22;8206;51.440;6.914;2022-08-07T10:56:02;23.60;99.90
16198;DHT22;8206;51.440;6.914;2022-08-07T10:58:51;23.50;99.90
16198;DHT22;8206;51.440;6.914;2022-08-07T11:01:28;23.50;99.90
16198;DHT22;8206;51.440;6.914;2022-08-07T11:04:02;23.70;99.90
16198;DHT22;8206;51.440;6.914;2022-08-07T11:06:39;23.90;99.90
16198;DHT22;8206;51.440;6.914;2022-08-07T11:09:10;23.90;99.90
16198;DHT22;8206;51.440;6.914;2022-08-07T11:11:43;24.00;99.90
16198;DHT22;8206;51.440;6.914;2022-08-07T11:14:16;23.80;99.90
16198;DHT22;8206;51.440;6.914;2022-08-07T11:16:48;23.80;99.90
16198;DHT22;8206;51.440;6.914;2022-08-07T11:19:29;23.90;99.90
16198;DHT22;8206;51.440;6.914;2022-08-07T11:22:05;23.90;99.90
16198;DHT22;8206;51.440;6.914;2022-08-07T11:24:40;23.90;99.90
16198;DHT22;8206;51.440;6.914;2022-08-07T11:27:16;23.90;99.90
16198;DHT22;8206;51.440;6.914;2022-08-07T11:29:51;24.00;99.90
16198;DHT22;8206;51.440;6.914;2022-08-07T11:32:27;24.10;99.90
16198;DHT22;8206;51.440;6.914;2022-08-07T11:34:58;24.10;99.90
16198;DHT22;8206;51.440;6.914;2022-08-07T11:37:42;24.10;99.90
16198;DHT22;8206;51.440;6.914;2022-08-07T11:40:17;24.20;99.90
16198;DHT22;8206;51.440;6.914;2022-08-07T11:42:55;24.20;99.90
16198;DHT22;8206;51.440;6.914;2022-08-07T11:45:33;24.30;99.90
16198;DHT22;8206;51.440;6.914;2022-08-07T11:48:29;24.50;99.90
16198;DHT22;8206;51.440;6.914;2022-08-07T11:51:14;24.70;99.90
16198;DHT22;8206;51.440;6.914;2022-08-07T11:53:49;24.80;99.90
16198;DHT22;8206;51.440;6.914;2022-08-07T11:56:32;24.80;99.90
16198;DHT22;8206;51.440;6.914;2022-08-07T11:59:14;24.80;99.90
16198;DHT22;8206;51.440;6.914;2022-08-07T12:01:55;24.80;99.90
16198;DHT22;8206;51.440;6.914;2022-08-07T12:04:37;24.80;99.90
16198;DHT22;8206;51.440;6.914;2022-08-07T12:07:08;24.80;99.90
16198;DHT22;8206;51.440;6.914;2022-08-07T12:09:45;24.70;99.90
16198;DHT22;8206;51.440;6.914;2022-08-07T12:12:17;24.60;99.90
16198;DHT22;8206;51.440;6.914;2022-08-07T12:14:48;24.60;99.90
16198;DHT22;8206;51.440;6.914;2022-08-07T12:17:19;24.80;99.90
16198;DHT22;8206;51.440;6.914;2022-08-07T12:19:52;24.70;99.90
16198;DHT22;8206;51.440;6.914;2022-08-07T12:22:31;24.60;99.90
16198;DHT22;8206;51.440;6.914;2022-08-07T12:25:05;24.60;99.90
16198;DHT22;8206;51.440;6.914;2022-08-07T12:27:57;24.50;99.90
16198;DHT22;8206;51.440;6.914;2022-08-07T12:30:31;24.50;99.90
16198;DHT22;8206;51.440;6.914;2022-08-07T12:33:02;24.50;99.90
16198;DHT22;8206;51.440;6.914;2022-08-07T12:35:31;24.60;99.90
16198;DHT22;8206;51.440;6.914;2022-08-07T12:37:59;24.70;99.90
16198;DHT22;8206;51.440;6.914;2022-08-07T12:40:29;24.70;99.90
16198;DHT22;8206;51.440;6.914;2022-08-07T12:43:01;24.80;99.90
16198;DHT22;8206;51.440;6.914;2022-08-07T12:45:32;24.90;99.90
16198;DHT22;8206;51.440;6.914;2022-08-07T12:48:09;24.80;99.90
16198;DHT22;8206;51.440;6.914;2022-08-07T12:50:44;24.90;99.90
16198;DHT22;8206;51.440;6.914;2022-08-07T12:53:19;25.00;99.90
16198;DHT22;8206;51.440;6.914;2022-08-07T12:55:55;25.00;99.90
16198;DHT22;8206;51.440;6.914;2022-08-07T12:58:24;24.80;99.90
16198;DHT22;8206;51.440;6.914;2022-08-07T13:01:01;24.80;99.90
16198;DHT22;8206;51.440;6.914;2022-08-07T13:03:49;24.80;99.90
16198;DHT22;8206;51.440;6.914;2022-08-07T13:06:28;25.00;99.90
16198;DHT22;8206;51.440;6.914;2022-08-07T13:09:10;25.00;99.90
16198;DHT22;8206;51.440;6.914;2022-08-07T13:11:48;24.90;99.90
16198;DHT22;8206;51.440;6.914;2022-08-07T13:14:24;25.00;99.90
16198;DHT22;8206;51.440;6.914;2022-08-07T13:16:59;25.10;99.90
16198;DHT22;8206;51.440;6.914;2022-08-07T13:19:38;25.20;99.90
16198;DHT22;8206;51.440;6.914;2022-08-07T13:22:11;25.30;99.90
16198;DHT22;8206;51.440;6.914;2022-08-07T13:24:43;25.20;99.90
16198;DHT22;8206;51.440;6.914;2022-08-07T13:27:13;25.10;99.90
16198;DHT22;8206;51.440;6.914;2022-08-07T13:29:48;25.10;99.90
16198;DHT22;8206;51.440;6.914;2022-08-07T13:32:22;25.10;99.90
16198;DHT22;8206;51.440;6.914;2022-08-07T13:34:56;25.00;99.90
16198;DHT22;8206;51.440;6.914;2022-08-07T13:37:30;25.00;99.90
16198;DHT22;8206;51.440;6.914;2022-08-07T13:40:11;25.10;99.90
16198;DHT22;8206;51.440;6.914;2022-08-07T13:42:39;25.10;99.90
16198;DHT22;8206;51.440;6.914;2022-08-07T13:45:09;25.40;99.90
16198;DHT22;8206;51.440;6.914;2022-08-07T13:47:38;25.40;99.90
16198;DHT22;8206;51.440;6.914;2022-08-07T13:50:08;25.50;99.90
16198;DHT22;8206;51.440;6.914;2022-08-07T13:52:39;25.40;99.90
16198;DHT22;8206;51.440;6.914;2022-08-07T13:55:12;25.30;99.90
16198;DHT22;8206;51.440;6.914;2022-08-07T13:57:41;25.30;99.90
16198;DHT22;8206;51.440;6.914;2022-08-07T14:00:09;25.20;99.90
16198;DHT22;8206;51.440;6.914;2022-08-07T14:02:37;25.10;99.90
16198;DHT22;8206;51.440;6.914;2022-08-07T14:05:10;25.20;99.90
16198;DHT22;8206;51.440;6.914;2022-08-07T14:07:40;25.30;99.90
16198;DHT22;8206;51.440;6.914;2022-08-07T14:10:09;25.40;99.90
16198;DHT22;8206;51.440;6.914;2022-08-07T14:12:39;25.20;99.90
16198;DHT22;8206;51.440;6.914;2022-08-07T14:15:18;25.10;99.90
16198;DHT22;8206;51.440;6.914;2022-08-07T14:17:46;25.10;99.90
16198;DHT22;8206;51.440;6.914;2022-08-07T14:20:17;25.10;99.90
16198;DHT22;8206;51.440;6.914;2022-08-07T14:22:47;25.10;99.90
16198;DHT22;8206;51.440;6.914;2022-08-07T14:25:16;25.20;99.90
16198;DHT22;8206;51.440;6.914;2022-08-07T14:27:45;25.30;99.90
16198;DHT22;8206;51.440;6.914;2022-08-07T14:30:13;25.30;99.90
16198;DHT22;8206;51.440;6.914;2022-08-07T14:32:42;25.30;99.90
16198;DHT22;8206;51.440;6.914;2022-08-07T14:35:16;25.10;99.90
16198;DHT22;8206;51.440;6.914;2022-08-07T14:37:46;25.00;99.90
16198;DHT22;8206;51.440;6.914;2022-08-07T14:40:20;25.00;99.90
16198;DHT22;8206;51.440;6.914;2022-08-07T14:42:53;25.10;99.90
16198;DHT22;8206;51.440;6.914;2022-08-07T14:45:22;25.10;99.90
16198;DHT22;8206;51.440;6.914;2022-08-07T14:47:50;25.10;99.90
16198;DHT22;8206;51.440;6.914;2022-08-07T14:50:19;25.30;99.90
16198;DHT22;8206;51.440;6.914;2022-08-07T14:52:48;25.30;99.90
16198;DHT22;8206;51.440;6.914;2022-08-07T14:55:15;25.30;99.90
16198;DHT22;8206;51.440;6.914;2022-08-07T14:57:47;25.30;99.90
16198;DHT22;8206;51.440;6.914;2022-08-07T15:00:16;25.40;99.90
16198;DHT22;8206;51.440;6.914;2022-08-07T15:02:45;25.40;99.90
16198;DHT22;8206;51.440;6.914;2022-08-07T15:05:16;25.30;99.90
16198;DHT22;8206;51.440;6.914;2022-08-07T15:07:45;25.20;99.90
16198;DHT22;8206;51.440;6.914;2022-08-07T15:10:17;25.10;99.90
16198;DHT22;8206;51.440;6.914;2022-08-07T15:12:45;25.10;99.90
16198;DHT22;8206;51.440;6.914;2022-08-07T15:15:24;25.20;99.90
16198;DHT22;8206;51.440;6.914;2022-08-07T15:17:58;25.10;99.90
16198;DHT22;8206;51.440;6.914;2022-08-07T15:20:30;25.20;99.90
16198;DHT22;8206;51.440;6.914;2022-08-07T15:23:00;25.10;99.90
16198;DHT22;8206;51.440;6.914;2022-08-07T15:25:32;25.00;99.90
16198;DHT22;8206;51.440;6.914;2022-08-07T15:28:02;25.10;99.90
16198;DHT22;8206;51.440;6.914;2022-08-07T15:30:30;25.10;99.90
16198;DHT22;8206;51.440;6.914;2022-08-07T15:32:59;25.10;99.90
16198;DHT22;8206;51.440;6.914;2022-08-07T15:35:27;25.10;99.90
16198;DHT22;8206;51.440;6.914;2022-08-07T15:37:58;25.10;99.90
16198;DHT22;8206;51.440;6.914;2022-08-07T15:40:28;25.20;99.90
16198;DHT22;8206;51.440;6.914;2022-08-07T15:43:02;25.20;99.90
16198;DHT22;8206;51.440;6.914;2022-08-07T15:45:33;25.30;99.90
16198;DHT22;8206;51.440;6.914;2022-08-07T15:48:06;25.30;99.90
16198;DHT22;8206;51.440;6.914;2022-08-07T15:50:36;25.30;99.90
16198;DHT22;8206;51.440;6.914;2022-08-07T15:53:07;25.30;99.90
16198;DHT22;8206;51.440;6.914;2022-08-07T15:55:39;25.10;99.90
16198;DHT22;8206;51.440;6.914;2022-08-07T15:58:07;25.10;99.90
16198;DHT22;8206;51.440;6.914;2022-08-07T16:00:36;25.10;99.90
16198;DHT22;8206;51.440;6.914;2022-08-07T16:03:09;25.10;99.90
16198;DHT22;8206;51.440;6.914;2022-08-07T16:05:38;24.90;99.90
16198;DHT22;8206;51.440;6.914;2022-08-07T16:08:12;25.00;99.90
16198;DHT22;8206;51.440;6.914;2022-08-07T16:10:46;25.00;99.90
16198;DHT22;8206;51.440;6.914;2022-08-07T16:13:53;25.10;99.90
16198;DHT22;8206;51.440;6.914;2022-08-07T16:16:58;25.20;99.90
16198;DHT22;8206;51.440;6.914;2022-08-07T16:19:36;25.20;99.90